sensor_id;sensor_type;location;lat;lon;timestamp;temperature;humidity
23291;DHT22;11814;44.686;10.842;2024-01-06T00:01:23;7.80;99.90
23291;DHT22;11814;44.686;10.842;2024-01-06T00:03:49;7.80;99.90
23291;DHT22;11814;44.686;10.842;2024-01-06T00:06:15;7.80;99.90
23291;DHT22;11814;44.686;10.842;2024-01-06T00:08:40;7.80;99.90
23291;DHT22;11814;44.686;10.842;2024-01-06T00:11:06;7.80;99.90
23291;DHT22;11814;44.686;10.842;2024-01-06T00:13:31;7.80;99.90
23291;DHT22;11814;44.686;10.842;2024-01-06T00:15:57;7.80;99.90
23291;DHT22;11814;44.686;10.842;2024-01-06T00:18:23;7.80;99.90
23291;DHT22;11814;44.686;10.842;2024-01-06T00:20:48;7.90;99.90
23291;DHT22;11814;44.686;10.842;2024-01-06T00:23:14;7.80;99.90
23291;DHT22;11814;44.686;10.842;2024-01-06T00:25:39;8.00;99.90
23291;DHT22;11814;44.686;10.842;2024-01-06T00:28:05;7.80;99.90
23291;DHT22;11814;44.686;10.842;2024-01-06T00:30:31;7.80;99.90
23291;DHT22;11814;44.686;10.842;2024-01-06T00:32:56;7.90;99.90
23291;DHT22;11814;44.686;10.842;2024-01-06T00:35:22;7.80;99.90
23291;DHT22;11814;44.686;10.842;2024-01-06T00:37:47;7.80;99.90
23291;DHT22;11814;44.686;10.842;2024-01-06T00:40:13;7.80;99.90
23291;DHT22;11814;44.686;10.842;2024-01-06T00:42:39;7.80;99.90
23291;DHT22;11814;44.686;10.842;2024-01-06T00:45:05;7.80;99.90
23291;DHT22;11814;44.686;10.842;2024-01-06T00:47:31;7.80;99.90
23291;DHT22;11814;44.686;10.842;2024-01-06T00:49:56;7.80;99.90
23291;DHT22;11814;44.686;10.842;2024-01-06T00:52:22;7.70;99.90
23291;DHT22;11814;44.686;10.842;2024-01-06T00:54:48;7.80;99.90
23291;DHT22;11814;44.686;10.842;2024-01-06T00:57:13;7.70;99.90
23291;DHT22;11814;44.686;10.842;2024-01-06T00:59:39;7.70;99.90
23291;DHT22;11814;44.686;10.842;2024-01-06T01:02:05;7.70;99.90
23291;DHT22;11814;44.686;10.842;2024-01-06T01:04:30;7.70;99.90
23291;DHT22;11814;44.686;10.842;2024-01-06T01:06:56;7.70;99.90
23291;DHT22;11814;44.686;10.842;2024-01-06T01:09:22;7.70;99.90
23291;DHT22;11814;44.686;10.842;2024-01-06T01:11:47;7.70;99.90
23291;DHT22;11814;44.686;10.842;2024-01-06T01:14:13;7.70;99.90
23291;DHT22;11814;44.686;10.842;2024-01-06T01:16:38;7.70;99.90
23291;DHT22;11814;44.686;10.842;2024-01-06T01:19:04;7.80;99.90
23291;DHT22;11814;44.686;10.842;2024-01-06T01:21:29;7.70;99.90
23291;DHT22;11814;44.686;10.842;2024-01-06T01:23:55;7.70;99.90
23291;DHT22;11814;44.686;10.842;2024-01-06T01:26:21;7.70;99.90
23291;DHT22;11814;44.686;10.842;2024-01-06T01:28:46;7.70;99.90
23291;DHT22;11814;44.686;10.842;2024-01-06T01:31:12;7.70;99.90
23291;DHT22;11814;44.686;10.842;2024-01-06T01:33:38;7.70;99.90
23291;DHT22;11814;44.686;10.842;2024-01-06T01:36:04;7.70;99.90
23291;DHT22;11814;44.686;10.842;2024-01-06T01:38:30;7.70;99.90
23291;DHT22;11814;44.686;10.842;2024-01-06T01:40:55;7.70;99.90
23291;DHT22;11814;44.686;10.842;2024-01-06T01:43:21;7.70;99.90
23291;DHT22;11814;44.686;10.842;2024-01-06T01:45:50;7.70;99.90
23291;DHT22;11814;44.686;10.842;2024-01-06T01:48:18;7.70;99.90
23291;DHT22;11814;44.686;10.842;2024-01-06T01:50:44;7.70;99.90
23291;DHT22;11814;44.686;10.842;2024-01-06T01:53:10;7.70;99.90
23291;DHT22;11814;44.686;10.842;2024-01-06T01:55:37;7.80;99.90
23291;DHT22;11814;44.686;10.842;2024-01-06T01:58:04;7.70;99.90
23291;DHT22;11814;44.686;10.842;2024-01-06T02:00:30;7.80;99.90
23291;DHT22;11814;44.686;10.842;2024-01-06T02:02:57;7.70;99.90
23291;DHT22;11814;44.686;10.842;2024-01-06T02:05:24;7.70;99.90
23291;DHT22;11814;44.686;10.842;2024-01-06T02:07:49;7.80;99.90
23291;DHT22;11814;44.686;10.842;2024-01-06T02:10:17;7.70;99.90
23291;DHT22;11814;44.686;10.842;2024-01-06T02:12:42;7.70;99.90
23291;DHT22;11814;44.686;10.842;2024-01-06T02:15:08;7.70;99.90
23291;DHT22;11814;44.686;10.842;2024-01-06T02:17:34;7.70;99.90
23291;DHT22;11814;44.686;10.842;2024-01-06T02:19:59;7.80;99.90
23291;DHT22;11814;44.686;10.842;2024-01-06T02:22:25;7.70;99.90
23291;DHT22;11814;44.686;10.842;2024-01-06T02:24:51;7.70;99.90
23291;DHT22;11814;44.686;10.842;2024-01-06T02:27:16;7.70;99.90
23291;DHT22;11814;44.686;10.842;2024-01-06T02:29:42;7.70;99.90
23291;DHT22;11814;44.686;10.842;2024-01-06T02:32:07;7.70;99.90
23291;DHT22;11814;44.686;10.842;2024-01-06T02:34:33;7.70;99.90
23291;DHT22;11814;44.686;10.842;2024-01-06T02:37:00;7.70;99.90
23291;DHT22;11814;44.686;10.842;2024-01-06T02:39:25;7.70;99.90
23291;DHT22;11814;44.686;10.842;2024-01-06T02:41:51;7.70;99.90
23291;DHT22;11814;44.686;10.842;2024-01-06T02:44:16;7.60;99.90
23291;DHT22;11814;44.686;10.842;2024-01-06T02:46:42;7.60;99.90
23291;DHT22;11814;44.686;10.842;2024-01-06T02:49:08;7.60;99.90
23291;DHT22;11814;44.686;10.842;2024-01-06T02:51:34;7.60;99.90
23291;DHT22;11814;44.686;10.842;2024-01-06T02:53:59;7.60;99.90
23291;DHT22;11814;44.686;10.842;2024-01-06T02:56:25;7.60;99.90
23291;DHT22;11814;44.686;10.842;2024-01-06T02:58:50;7.60;99.90
23291;DHT22;11814;44.686;10.842;2024-01-06T03:01:17;7.60;99.90
23291;DHT22;11814;44.686;10.842;2024-01-06T03:03:43;7.60;99.90
23291;DHT22;11814;44.686;10.842;2024-01-06T03:06:08;7.60;99.90
23291;DHT22;11814;44.686;10.842;2024-01-06T03:08:34;7.60;99.90
23291;DHT22;11814;44.686;10.842;2024-01-06T03:11:01;7.60;99.90
23291;DHT22;11814;44.686;10.842;2024-01-06T03:13:29;7.60;99.90
23291;DHT22;11814;44.686;10.842;2024-01-06T03:15:54;7.60;99.90
23291;DHT22;11814;44.686;10.842;2024-01-06T03:18:20;7.60;99.90
23291;DHT22;11814;44.686;10.842;2024-01-06T03:20:45;7.60;99.90
23291;DHT22;11814;44.686;10.842;2024-01-06T03:23:11;7.60;99.90
23291;DHT22;11814;44.686;10.842;2024-01-06T03:25:37;7.50;99.90
23291;DHT22;11814;44.686;10.842;2024-01-06T03:28:02;7.60;99.90
23291;DHT22;11814;44.686;10.842;2024-01-06T03:30:28;7.60;99.90
23291;DHT22;11814;44.686;10.842;2024-01-06T03:32:54;7.60;99.90
23291;DHT22;11814;44.686;10.842;2024-01-06T03:35:19;7.50;99.90
23291;DHT22;11814;44.686;10.842;2024-01-06T03:37:45;7.50;99.90
23291;DHT22;11814;44.686;10.842;2024-01-06T03:40:11;7.50;99.90
23291;DHT22;11814;44.686;10.842;2024-01-06T03:42:37;7.50;99.90
23291;DHT22;11814;44.686;10.842;2024-01-06T03:45:03;7.50;99.90
23291;DHT22;11814;44.686;10.842;2024-01-06T03:47:29;7.50;99.90
23291;DHT22;11814;44.686;10.842;2024-01-06T03:49:54;7.50;99.90
23291;DHT22;11814;44.686;10.842;2024-01-06T03:52:20;7.50;99.90
23291;DHT22;11814;44.686;10.842;2024-01-06T03:54:45;7.50;99.90
23291;DHT22;11814;44.686;10.842;2024-01-06T03:57:11;7.50;99.90
23291;DHT22;11814;44.686;10.842;2024-01-06T03:59:37;7.50;99.90
23291;DHT22;11814;44.686;10.842;2024-01-06T04:02:02;7.50;99.90
23291;DHT22;11814;44.686;10.842;2024-01-06T04:04:28;7.50;99.90
23291;DHT22;11814;44.686;10.842;2024-01-06T04:06:53;7.60;99.90
23291;DHT22;11814;44.686;10.842;2024-01-06T04:09:19;7.50;99.90
23291;DHT22;11814;44.686;10.842;2024-01-06T04:11:45;7.50;99.90
23291;DHT22;11814;44.686;10.842;2024-01-06T04:14:10;7.60;99.90
23291;DHT22;11814;44.686;10.842;2024-01-06T04:16:36;7.50;99.90
23291;DHT22;11814;44.686;10.842;2024-01-06T04:19:01;7.50;99.90
23291;DHT22;11814;44.686;10.842;2024-01-06T04:21:27;7.50;99.90
23291;DHT22;11814;44.686;10.842;2024-01-06T04:23:52;7.50;99.90
23291;DHT22;11814;44.686;10.842;2024-01-06T04:26:18;7.50;99.90
23291;DHT22;11814;44.686;10.842;2024-01-06T04:28:44;7.50;99.90
23291;DHT22;11814;44.686;10.842;2024-01-06T04:31:25;7.50;99.90
23291;DHT22;11814;44.686;10.842;2024-01-06T04:33:50;7.50;99.90
23291;DHT22;11814;44.686;10.842;2024-01-06T04:36:16;7.50;99.90
23291;DHT22;11814;44.686;10.842;2024-01-06T04:38:41;7.50;99.90
23291;DHT22;11814;44.686;10.842;2024-01-06T04:41:07;7.50;99.90
23291;DHT22;11814;44.686;10.842;2024-01-06T04:43:33;7.50;99.90
23291;DHT22;11814;44.686;10.842;2024-01-06T04:45:58;7.50;99.90
23291;DHT22;11814;44.686;10.842;2024-01-06T04:48:24;7.40;99.90
23291;DHT22;11814;44.686;10.842;2024-01-06T04:50:49;7.50;99.90
23291;DHT22;11814;44.686;10.842;2024-01-06T04:53:15;7.50;99.90
23291;DHT22;11814;44.686;10.842;2024-01-06T04:55:41;7.50;99.90
23291;DHT22;11814;44.686;10.842;2024-01-06T04:58:06;7.60;99.90
23291;DHT22;11814;44.686;10.842;2024-01-06T05:00:32;7.50;99.90
23291;DHT22;11814;44.686;10.842;2024-01-06T05:02:58;7.50;99.90
23291;DHT22;11814;44.686;10.842;2024-01-06T05:05:23;7.50;99.90
23291;DHT22;11814;44.686;10.842;2024-01-06T05:07:49;7.70;99.90
23291;DHT22;11814;44.686;10.842;2024-01-06T05:10:14;7.40;99.90
23291;DHT22;11814;44.686;10.842;2024-01-06T05:12:40;7.60;99.90
23291;DHT22;11814;44.686;10.842;2024-01-06T05:15:06;7.60;99.90
23291;DHT22;11814;44.686;10.842;2024-01-06T05:17:32;7.50;99.90
23291;DHT22;11814;44.686;10.842;2024-01-06T05:19:57;7.50;99.90
23291;DHT22;11814;44.686;10.842;2024-01-06T05:22:23;7.60;99.90
23291;DHT22;11814;44.686;10.842;2024-01-06T05:24:49;7.50;99.90
23291;DHT22;11814;44.686;10.842;2024-01-06T05:27:18;7.60;99.90
23291;DHT22;11814;44.686;10.842;2024-01-06T05:29:44;7.60;99.90
23291;DHT22;11814;44.686;10.842;2024-01-06T05:32:10;7.60;99.90
23291;DHT22;11814;44.686;10.842;2024-01-06T05:34:35;7.60;99.90
23291;DHT22;11814;44.686;10.842;2024-01-06T05:37:01;7.60;99.90
23291;DHT22;11814;44.686;10.842;2024-01-06T05:39:27;7.60;99.90
23291;DHT22;11814;44.686;10.842;2024-01-06T05:41:52;7.50;99.90
23291;DHT22;11814;44.686;10.842;2024-01-06T05:44:18;7.60;99.90
23291;DHT22;11814;44.686;10.842;2024-01-06T05:46:44;7.50;99.90
23291;DHT22;11814;44.686;10.842;2024-01-06T05:49:09;7.60;99.90
23291;DHT22;11814;44.686;10.842;2024-01-06T05:51:35;7.60;99.90
23291;DHT22;11814;44.686;10.842;2024-01-06T05:54:01;7.50;99.90
23291;DHT22;11814;44.686;10.842;2024-01-06T05:56:28;7.40;99.90
23291;DHT22;11814;44.686;10.842;2024-01-06T05:58:55;7.50;99.90
23291;DHT22;11814;44.686;10.842;2024-01-06T06:01:21;7.60;99.90
23291;DHT22;11814;44.686;10.842;2024-01-06T06:03:47;7.60;99.90
23291;DHT22;11814;44.686;10.842;2024-01-06T06:06:13;7.70;99.90
23291;DHT22;11814;44.686;10.842;2024-01-06T06:08:40;7.60;99.90
23291;DHT22;11814;44.686;10.842;2024-01-06T06:11:07;7.70;99.90
23291;DHT22;11814;44.686;10.842;2024-01-06T06:13:42;7.70;99.90
23291;DHT22;11814;44.686;10.842;2024-01-06T06:16:11;7.70;99.90
23291;DHT22;11814;44.686;10.842;2024-01-06T06:18:38;7.80;99.90
23291;DHT22;11814;44.686;10.842;2024-01-06T06:21:04;7.80;99.90
23291;DHT22;11814;44.686;10.842;2024-01-06T06:23:32;7.80;99.90
23291;DHT22;11814;44.686;10.842;2024-01-06T06:25:58;7.80;99.90
23291;DHT22;11814;44.686;10.842;2024-01-06T06:28:25;7.90;99.90
23291;DHT22;11814;44.686;10.842;2024-01-06T06:30:51;7.80;99.90
23291;DHT22;11814;44.686;10.842;2024-01-06T06:33:16;7.80;99.90
23291;DHT22;11814;44.686;10.842;2024-01-06T06:35:42;7.80;99.90
23291;DHT22;11814;44.686;10.842;2024-01-06T06:38:08;7.80;99.90
23291;DHT22;11814;44.686;10.842;2024-01-06T06:40:34;7.90;99.90
23291;DHT22;11814;44.686;10.842;2024-01-06T06:42:59;7.80;99.90
23291;DHT22;11814;44.686;10.842;2024-01-06T06:45:25;7.80;99.90
23291;DHT22;11814;44.686;10.842;2024-01-06T06:47:50;7.80;99.90
23291;DHT22;11814;44.686;10.842;2024-01-06T06:50:17;7.90;99.90
23291;DHT22;11814;44.686;10.842;2024-01-06T06:52:42;7.80;99.90
23291;DHT22;11814;44.686;10.842;2024-01-06T06:55:08;7.80;99.90
23291;DHT22;11814;44.686;10.842;2024-01-06T06:57:34;7.80;99.90
23291;DHT22;11814;44.686;10.842;2024-01-06T06:59:59;7.90;99.90
23291;DHT22;11814;44.686;10.842;2024-01-06T07:02:28;8.10;99.90
23291;DHT22;11814;44.686;10.842;2024-01-06T07:04:53;7.90;99.90
23291;DHT22;11814;44.686;10.842;2024-01-06T07:07:19;7.90;99.90
23291;DHT22;11814;44.686;10.842;2024-01-06T07:09:45;7.90;99.90
23291;DHT22;11814;44.686;10.842;2024-01-06T07:12:10;7.90;99.90
23291;DHT22;11814;44.686;10.842;2024-01-06T07:14:36;8.00;99.90
23291;DHT22;11814;44.686;10.842;2024-01-06T07:17:03;7.90;99.90
23291;DHT22;11814;44.686;10.842;2024-01-06T07:19:31;7.90;99.90
23291;DHT22;11814;44.686;10.842;2024-01-06T07:21:57;8.00;99.90
23291;DHT22;11814;44.686;10.842;2024-01-06T07:24:22;7.90;99.90
23291;DHT22;11814;44.686;10.842;2024-01-06T07:26:48;8.00;99.90
23291;DHT22;11814;44.686;10.842;2024-01-06T07:29:14;8.00;99.90
23291;DHT22;11814;44.686;10.842;2024-01-06T07:31:39;8.00;99.90
23291;DHT22;11814;44.686;10.842;2024-01-06T07:34:05;8.00;99.90
23291;DHT22;11814;44.686;10.842;2024-01-06T07:36:31;8.00;99.90
23291;DHT22;11814;44.686;10.842;2024-01-06T07:38:57;7.90;99.90
23291;DHT22;11814;44.686;10.842;2024-01-06T07:41:23;8.00;99.90
23291;DHT22;11814;44.686;10.842;2024-01-06T07:43:48;8.00;99.90
23291;DHT22;11814;44.686;10.842;2024-01-06T07:46:14;8.00;99.90
23291;DHT22;11814;44.686;10.842;2024-01-06T07:48:40;7.90;99.90
23291;DHT22;11814;44.686;10.842;2024-01-06T07:51:05;8.00;99.90
23291;DHT22;11814;44.686;10.842;2024-01-06T07:53:31;8.00;99.90
23291;DHT22;11814;44.686;10.842;2024-01-06T07:55:57;8.00;99.90
23291;DHT22;11814;44.686;10.842;2024-01-06T07:58:22;8.00;99.90
23291;DHT22;11814;44.686;10.842;2024-01-06T08:00:48;8.00;99.90
23291;DHT22;11814;44.686;10.842;2024-01-06T08:03:13;8.00;99.90
23291;DHT22;11814;44.686;10.842;2024-01-06T08:05:39;8.10;99.90
23291;DHT22;11814;44.686;10.842;2024-01-06T08:08:05;8.00;99.90
23291;DHT22;11814;44.686;10.842;2024-01-06T08:10:31;8.10;99.90
23291;DHT22;11814;44.686;10.842;2024-01-06T08:12:57;8.10;99.90
23291;DHT22;11814;44.686;10.842;2024-01-06T08:15:22;8.10;99.90
23291;DHT22;11814;44.686;10.842;2024-01-06T08:17:48;8.00;99.90
23291;DHT22;11814;44.686;10.842;2024-01-06T08:20:14;8.10;99.90
23291;DHT22;11814;44.686;10.842;2024-01-06T08:22:39;8.10;99.90
23291;DHT22;11814;44.686;10.842;2024-01-06T08:25:05;8.20;99.90
23291;DHT22;11814;44.686;10.842;2024-01-06T08:27:34;8.10;99.90
23291;DHT22;11814;44.686;10.842;2024-01-06T08:30:00;8.20;99.90
23291;DHT22;11814;44.686;10.842;2024-01-06T08:32:26;8.10;99.90
23291;DHT22;11814;44.686;10.842;2024-01-06T08:34:51;8.10;99.90
23291;DHT22;11814;44.686;10.842;2024-01-06T08:37:17;8.20;99.90
23291;DHT22;11814;44.686;10.842;2024-01-06T08:39:43;8.20;99.90
23291;DHT22;11814;44.686;10.842;2024-01-06T08:42:09;8.20;99.90
23291;DHT22;11814;44.686;10.842;2024-01-06T08:44:34;8.20;99.90
23291;DHT22;11814;44.686;10.842;2024-01-06T08:47:00;8.20;99.90
23291;DHT22;11814;44.686;10.842;2024-01-06T08:49:25;8.20;99.90
23291;DHT22;11814;44.686;10.842;2024-01-06T08:51:51;8.10;99.90
23291;DHT22;11814;44.686;10.842;2024-01-06T08:54:16;8.10;99.90
23291;DHT22;11814;44.686;10.842;2024-01-06T08:56:42;8.00;99.90
23291;DHT22;11814;44.686;10.842;2024-01-06T08:59:08;8.10;99.90
23291;DHT22;11814;44.686;10.842;2024-01-06T09:01:33;8.10;99.90
23291;DHT22;11814;44.686;10.842;2024-01-06T09:04:01;8.10;99.90
23291;DHT22;11814;44.686;10.842;2024-01-06T09:06:27;8.10;99.90
23291;DHT22;11814;44.686;10.842;2024-01-06T09:08:53;8.00;99.90
23291;DHT22;11814;44.686;10.842;2024-01-06T09:11:18;8.00;99.90
23291;DHT22;11814;44.686;10.842;2024-01-06T09:13:44;8.00;99.90
23291;DHT22;11814;44.686;10.842;2024-01-06T09:16:10;8.10;99.90
23291;DHT22;11814;44.686;10.842;2024-01-06T09:18:36;8.00;99.90
23291;DHT22;11814;44.686;10.842;2024-01-06T09:21:01;8.10;99.90
23291;DHT22;11814;44.686;10.842;2024-01-06T09:23:28;8.10;99.90
23291;DHT22;11814;44.686;10.842;2024-01-06T09:25:54;8.00;99.90
23291;DHT22;11814;44.686;10.842;2024-01-06T09:28:20;8.10;99.90
23291;DHT22;11814;44.686;10.842;2024-01-06T09:30:48;8.00;99.90
23291;DHT22;11814;44.686;10.842;2024-01-06T09:33:15;8.00;99.90
23291;DHT22;11814;44.686;10.842;2024-01-06T09:35:41;8.10;99.90
23291;DHT22;11814;44.686;10.842;2024-01-06T09:38:07;8.00;99.90
23291;DHT22;11814;44.686;10.842;2024-01-06T09:40:34;8.00;99.90
23291;DHT22;11814;44.686;10.842;2024-01-06T09:43:00;8.10;99.90
23291;DHT22;11814;44.686;10.842;2024-01-06T09:45:28;8.00;99.90
23291;DHT22;11814;44.686;10.842;2024-01-06T09:47:54;8.10;99.90
23291;DHT22;11814;44.686;10.842;2024-01-06T09:50:21;8.10;99.90
23291;DHT22;11814;44.686;10.842;2024-01-06T09:52:48;8.10;99.90
23291;DHT22;11814;44.686;10.842;2024-01-06T09:55:25;8.20;99.90
23291;DHT22;11814;44.686;10.842;2024-01-06T09:57:53;8.00;99.90
23291;DHT22;11814;44.686;10.842;2024-01-06T10:00:20;8.10;99.90
23291;DHT22;11814;44.686;10.842;2024-01-06T10:02:49;8.10;99.90
23291;DHT22;11814;44.686;10.842;2024-01-06T10:05:17;8.10;99.90
23291;DHT22;11814;44.686;10.842;2024-01-06T10:07:45;8.00;99.90
23291;DHT22;11814;44.686;10.842;2024-01-06T10:10:12;8.20;99.90
23291;DHT22;11814;44.686;10.842;2024-01-06T10:12:38;8.10;99.90
23291;DHT22;11814;44.686;10.842;2024-01-06T10:15:06;8.20;99.90
23291;DHT22;11814;44.686;10.842;2024-01-06T10:17:32;8.20;99.90
23291;DHT22;11814;44.686;10.842;2024-01-06T10:19:59;8.20;99.90
23291;DHT22;11814;44.686;10.842;2024-01-06T10:22:24;8.20;99.90
23291;DHT22;11814;44.686;10.842;2024-01-06T10:24:50;8.20;99.90
23291;DHT22;11814;44.686;10.842;2024-01-06T10:27:16;8.20;99.90
23291;DHT22;11814;44.686;10.842;2024-01-06T10:29:42;8.10;99.90
23291;DHT22;11814;44.686;10.842;2024-01-06T10:32:08;8.20;99.90
23291;DHT22;11814;44.686;10.842;2024-01-06T10:34:33;8.20;99.90
23291;DHT22;11814;44.686;10.842;2024-01-06T10:37:02;8.20;99.90
23291;DHT22;11814;44.686;10.842;2024-01-06T10:39:28;8.30;99.90
23291;DHT22;11814;44.686;10.842;2024-01-06T10:41:55;8.30;99.90
23291;DHT22;11814;44.686;10.842;2024-01-06T10:44:21;8.30;99.90
23291;DHT22;11814;44.686;10.842;2024-01-06T10:46:48;8.30;99.90
23291;DHT22;11814;44.686;10.842;2024-01-06T10:49:15;8.30;99.90
23291;DHT22;11814;44.686;10.842;2024-01-06T10:51:43;8.30;99.90
23291;DHT22;11814;44.686;10.842;2024-01-06T10:54:12;8.30;99.90
23291;DHT22;11814;44.686;10.842;2024-01-06T10:56:38;8.30;99.90
23291;DHT22;11814;44.686;10.842;2024-01-06T10:59:04;8.30;99.90
23291;DHT22;11814;44.686;10.842;2024-01-06T11:01:31;8.30;99.90
23291;DHT22;11814;44.686;10.842;2024-01-06T11:03:58;8.30;99.90
23291;DHT22;11814;44.686;10.842;2024-01-06T11:06:25;8.30;99.90
23291;DHT22;11814;44.686;10.842;2024-01-06T11:09:18;8.30;99.90
23291;DHT22;11814;44.686;10.842;2024-01-06T11:11:45;8.30;99.90
23291;DHT22;11814;44.686;10.842;2024-01-06T11:14:25;8.40;99.90
23291;DHT22;11814;44.686;10.842;2024-01-06T11:16:51;8.40;99.90
23291;DHT22;11814;44.686;10.842;2024-01-06T11:22:27;8.40;99.90
23291;DHT22;11814;44.686;10.842;2024-01-06T11:24:56;8.40;99.90
23291;DHT22;11814;44.686;10.842;2024-01-06T11:27:24;8.40;99.90
23291;DHT22;11814;44.686;10.842;2024-01-06T11:29:54;8.40;99.90
23291;DHT22;11814;44.686;10.842;2024-01-06T11:32:20;8.40;99.90
23291;DHT22;11814;44.686;10.842;2024-01-06T11:34:50;8.40;99.90
23291;DHT22;11814;44.686;10.842;2024-01-06T11:37:34;8.40;99.90
23291;DHT22;11814;44.686;10.842;2024-01-06T11:40:02;8.40;99.90
23291;DHT22;11814;44.686;10.842;2024-01-06T11:42:34;8.40;99.90
23291;DHT22;11814;44.686;10.842;2024-01-06T11:45:05;8.40;99.90
23291;DHT22;11814;44.686;10.842;2024-01-06T11:47:32;8.50;99.90
23291;DHT22;11814;44.686;10.842;2024-01-06T11:49:59;8.50;99.90
23291;DHT22;11814;44.686;10.842;2024-01-06T11:52:25;8.50;99.90
23291;DHT22;11814;44.686;10.842;2024-01-06T11:54:54;8.60;99.90
23291;DHT22;11814;44.686;10.842;2024-01-06T11:57:21;8.70;99.90
23291;DHT22;11814;44.686;10.842;2024-01-06T11:59:48;8.60;99.90
23291;DHT22;11814;44.686;10.842;2024-01-06T12:02:13;8.70;99.90
23291;DHT22;11814;44.686;10.842;2024-01-06T12:04:40;8.70;99.90
23291;DHT22;11814;44.686;10.842;2024-01-06T12:07:09;8.80;99.90
23291;DHT22;11814;44.686;10.842;2024-01-06T12:09:35;8.80;99.90
23291;DHT22;11814;44.686;10.842;2024-01-06T12:12:04;8.80;99.90
23291;DHT22;11814;44.686;10.842;2024-01-06T12:14:35;8.80;99.90
23291;DHT22;11814;44.686;10.842;2024-01-06T12:17:00;8.80;99.90
23291;DHT22;11814;44.686;10.842;2024-01-06T12:19:30;8.80;99.90
23291;DHT22;11814;44.686;10.842;2024-01-06T12:21:56;8.80;99.90
23291;DHT22;11814;44.686;10.842;2024-01-06T12:24:22;8.80;99.90
23291;DHT22;11814;44.686;10.842;2024-01-06T12:26:49;8.80;99.90
23291;DHT22;11814;44.686;10.842;2024-01-06T12:29:15;8.70;99.90
23291;DHT22;11814;44.686;10.842;2024-01-06T12:31:42;8.70;99.90
23291;DHT22;11814;44.686;10.842;2024-01-06T12:34:10;8.70;99.90
23291;DHT22;11814;44.686;10.842;2024-01-06T12:36:39;8.70;99.90
23291;DHT22;11814;44.686;10.842;2024-01-06T12:39:10;8.70;99.90
23291;DHT22;11814;44.686;10.842;2024-01-06T12:41:37;8.70;99.90
23291;DHT22;11814;44.686;10.842;2024-01-06T12:44:03;8.70;99.90
23291;DHT22;11814;44.686;10.842;2024-01-06T12:46:29;8.70;99.90
23291;DHT22;11814;44.686;10.842;2024-01-06T12:48:55;8.70;99.90
23291;DHT22;11814;44.686;10.842;2024-01-06T12:51:20;8.70;99.90
23291;DHT22;11814;44.686;10.842;2024-01-06T12:53:46;8.70;99.90
23291;DHT22;11814;44.686;10.842;2024-01-06T12:56:12;8.70;99.90
23291;DHT22;11814;44.686;10.842;2024-01-06T12:58:40;8.70;99.90
23291;DHT22;11814;44.686;10.842;2024-01-06T13:01:06;8.70;99.90
23291;DHT22;11814;44.686;10.842;2024-01-06T13:03:32;8.70;99.90
23291;DHT22;11814;44.686;10.842;2024-01-06T13:05:59;8.70;99.90
23291;DHT22;11814;44.686;10.842;2024-01-06T13:08:25;8.70;99.90
23291;DHT22;11814;44.686;10.842;2024-01-06T13:10:51;8.60;99.90
23291;DHT22;11814;44.686;10.842;2024-01-06T13:13:17;8.60;99.90
23291;DHT22;11814;44.686;10.842;2024-01-06T13:15:43;8.60;99.90
23291;DHT22;11814;44.686;10.842;2024-01-06T13:18:08;8.70;99.90
23291;DHT22;11814;44.686;10.842;2024-01-06T13:20:34;8.70;99.90
23291;DHT22;11814;44.686;10.842;2024-01-06T13:22:59;8.60;99.90
23291;DHT22;11814;44.686;10.842;2024-01-06T13:25:25;8.70;99.90
23291;DHT22;11814;44.686;10.842;2024-01-06T13:27:51;8.70;99.90
23291;DHT22;11814;44.686;10.842;2024-01-06T13:30:17;8.70;99.90
23291;DHT22;11814;44.686;10.842;2024-01-06T13:32:42;8.70;99.90
23291;DHT22;11814;44.686;10.842;2024-01-06T13:35:08;8.60;99.90
23291;DHT22;11814;44.686;10.842;2024-01-06T13:37:36;8.60;99.90
23291;DHT22;11814;44.686;10.842;2024-01-06T13:40:02;8.60;99.90
23291;DHT22;11814;44.686;10.842;2024-01-06T13:42:28;8.60;99.90
23291;DHT22;11814;44.686;10.842;2024-01-06T13:44:54;8.60;99.90
23291;DHT22;11814;44.686;10.842;2024-01-06T13:47:19;8.60;99.90
23291;DHT22;11814;44.686;10.842;2024-01-06T13:49:45;8.60;99.90
23291;DHT22;11814;44.686;10.842;2024-01-06T13:52:11;8.60;99.90
23291;DHT22;11814;44.686;10.842;2024-01-06T13:54:36;8.70;99.90
23291;DHT22;11814;44.686;10.842;2024-01-06T13:57:02;8.70;99.90
23291;DHT22;11814;44.686;10.842;2024-01-06T13:59:28;8.70;99.90
23291;DHT22;11814;44.686;10.842;2024-01-06T14:01:54;8.70;99.90
23291;DHT22;11814;44.686;10.842;2024-01-06T14:04:20;8.70;99.90
23291;DHT22;11814;44.686;10.842;2024-01-06T14:06:45;8.70;99.90
23291;DHT22;11814;44.686;10.842;2024-01-06T14:09:13;8.70;99.90
23291;DHT22;11814;44.686;10.842;2024-01-06T14:11:39;8.70;99.90
23291;DHT22;11814;44.686;10.842;2024-01-06T14:14:04;8.70;99.90
23291;DHT22;11814;44.686;10.842;2024-01-06T14:16:30;8.70;99.90
23291;DHT22;11814;44.686;10.842;2024-01-06T14:18:56;8.80;99.90
23291;DHT22;11814;44.686;10.842;2024-01-06T14:21:22;8.70;99.90
23291;DHT22;11814;44.686;10.842;2024-01-06T14:23:48;8.80;99.90
23291;DHT22;11814;44.686;10.842;2024-01-06T14:26:18;8.70;99.90
23291;DHT22;11814;44.686;10.842;2024-01-06T14:28:46;8.80;99.90
23291;DHT22;11814;44.686;10.842;2024-01-06T14:31:11;8.80;99.90
23291;DHT22;11814;44.686;10.842;2024-01-06T14:33:37;8.80;99.90
23291;DHT22;11814;44.686;10.842;2024-01-06T14:36:03;8.70;99.90
23291;DHT22;11814;44.686;10.842;2024-01-06T14:38:29;8.70;99.90
23291;DHT22;11814;44.686;10.842;2024-01-06T14:40:54;8.70;99.90
23291;DHT22;11814;44.686;10.842;2024-01-06T14:43:20;8.70;99.90
23291;DHT22;11814;44.686;10.842;2024-01-06T14:45:46;8.70;99.90
23291;DHT22;11814;44.686;10.842;2024-01-06T14:48:12;8.70;99.90
23291;DHT22;11814;44.686;10.842;2024-01-06T14:50:38;8.60;99.90
23291;DHT22;11814;44.686;10.842;2024-01-06T14:53:04;8.70;99.90
23291;DHT22;11814;44.686;10.842;2024-01-06T14:55:29;8.60;99.90
23291;DHT22;11814;44.686;10.842;2024-01-06T14:57:55;8.70;99.90
23291;DHT22;11814;44.686;10.842;2024-01-06T15:00:21;8.70;99.90
23291;DHT22;11814;44.686;10.842;2024-01-06T15:02:46;8.70;99.90
23291;DHT22;11814;44.686;10.842;2024-01-06T15:05:12;8.70;99.90
23291;DHT22;11814;44.686;10.842;2024-01-06T15:07:38;8.70;99.90
23291;DHT22;11814;44.686;10.842;2024-01-06T15:10:04;8.70;99.90
23291;DHT22;11814;44.686;10.842;2024-01-06T15:12:31;8.60;99.90
23291;DHT22;11814;44.686;10.842;2024-01-06T15:14:56;8.60;99.90
23291;DHT22;11814;44.686;10.842;2024-01-06T15:17:24;8.70;99.90
23291;DHT22;11814;44.686;10.842;2024-01-06T15:19:49;8.70;99.90
23291;DHT22;11814;44.686;10.842;2024-01-06T15:22:16;8.70;99.90
23291;DHT22;11814;44.686;10.842;2024-01-06T15:24:42;8.70;99.90
23291;DHT22;11814;44.686;10.842;2024-01-06T15:27:13;8.80;99.90